Time;durP1;ratioP1;P1;durP2;ratioP2;P2;SDS_P1;SDS_P2;PMS_P1;PMS_P2;Temp;Humidity;BMP_temperature;BMP_pressure;BME280_temperature;BME280_humidity;BME280_pressure;Samples;Min_cycle;Max_cycle;Signal;HPM_P1;HPM_P2
2021/11/06 00:01:41;;;;;;;11.98;8.05;;;;;;;8.66;74.07;101838.00;5012583;28;20026;-41
2021/11/06 00:04:06;;;;;;;10.18;7.22;;;;;;;8.64;74.03;101832.72;5006724;28;20027;-41
2021/11/06 00:06:32;;;;;;;9.90;7.97;;;;;;;8.65;73.88;101834.50;5012239;28;20088;-41
2021/11/06 00:08:57;;;;;;;9.68;7.82;;;;;;;8.65;73.87;101833.59;5012975;28;20609;-41
2021/11/06 00:11:23;;;;;;;10.13;6.95;;;;;;;8.64;73.94;101837.97;5018552;28;20025;-42
2021/11/06 00:13:48;;;;;;;10.90;8.23;;;;;;;8.64;74.07;101837.09;5014589;28;20093;-40
2021/11/06 00:16:14;;;;;;;11.07;8.15;;;;;;;8.65;73.77;101846.75;4999125;28;20030;-41
2021/11/06 00:18:39;;;;;;;13.57;8.43;;;;;;;8.63;73.96;101838.84;5000300;28;20064;-43
2021/11/06 00:21:04;;;;;;;9.73;7.53;;;;;;;8.64;73.52;101851.13;5014862;28;20572;-41
2021/11/06 00:23:30;;;;;;;13.23;7.60;;;;;;;8.62;73.96;101855.50;5001384;28;20042;-41
2021/11/06 00:25:55;;;;;;;10.57;7.40;;;;;;;8.64;73.79;101845.00;5000602;28;20038;-41
2021/11/06 00:28:20;;;;;;;11.73;7.30;;;;;;;8.64;73.96;101845.84;5003723;28;20437;-41
2021/11/06 00:30:46;;;;;;;12.18;7.45;;;;;;;8.62;73.95;101854.59;5016861;28;20022;-41
2021/11/06 00:33:11;;;;;;;11.00;7.47;;;;;;;8.63;73.92;101859.00;5007591;28;20420;-42
2021/11/06 00:35:36;;;;;;;10.18;7.70;;;;;;;8.64;74.02;101852.88;5017012;28;20489;-41
2021/11/06 00:38:02;;;;;;;10.57;7.75;;;;;;;8.63;73.90;101857.25;5006666;28;20477;-43
2021/11/06 00:40:27;;;;;;;9.73;7.82;;;;;;;8.64;73.94;101853.75;5015457;28;20025;-41
2021/11/06 00:42:53;;;;;;;8.80;6.40;;;;;;;8.63;74.00;101851.13;5008447;28;20057;-41
2021/11/06 00:45:19;;;;;;;9.63;6.75;;;;;;;8.64;73.86;101858.16;5018266;28;20037;-41
2021/11/06 00:47:45;;;;;;;12.10;7.30;;;;;;;8.62;73.77;101850.22;5005585;28;20040;-43
2021/11/06 00:50:15;;;;;;;10.15;7.72;;;;;;;8.63;73.86;101853.75;5003534;28;20026;-41
2021/11/06 00:52:41;;;;;;;10.07;7.13;;;;;;;8.64;73.69;101858.16;5011745;28;20030;-42
2021/11/06 00:55:06;;;;;;;8.55;6.80;;;;;;;8.64;73.94;101863.41;5012028;28;20046;-41
2021/11/06 00:57:32;;;;;;;8.30;6.45;;;;;;;8.63;73.82;101859.00;5001033;28;20029;-41
2021/11/06 00:59:57;;;;;;;8.85;6.18;;;;;;;8.63;73.79;101862.50;4998501;28;20471;-40
2021/11/06 01:02:22;;;;;;;10.27;6.95;;;;;;;8.62;73.63;101866.00;4998473;28;20498;-41
2021/11/06 01:04:47;;;;;;;9.75;7.45;;;;;;;8.63;73.81;101866.91;5017176;28;20069;-42
2021/11/06 01:07:13;;;;;;;9.88;6.78;;;;;;;8.63;73.75;101864.28;5016270;28;20032;-42
2021/11/06 01:09:38;;;;;;;8.57;6.22;;;;;;;8.62;73.76;101863.38;4997059;28;20076;-41
2021/11/06 01:12:04;;;;;;;7.55;6.00;;;;;;;8.62;73.75;101868.63;5001327;28;20030;-41
2021/11/06 01:14:35;;;;;;;8.32;6.07;;;;;;;8.62;73.83;101870.38;4999175;28;20386;-41
2021/11/06 01:17:01;;;;;;;9.10;6.10;;;;;;;8.63;73.81;101869.53;4998374;28;20038;-42
2021/11/06 01:19:26;;;;;;;9.88;6.38;;;;;;;8.60;73.75;101879.13;5000472;28;20109;-41
2021/11/06 01:21:51;;;;;;;7.43;6.30;;;;;;;8.62;73.84;101873.91;4995439;28;20122;-43
2021/11/06 01:24:17;;;;;;;11.77;7.07;;;;;;;8.59;73.64;101861.59;4995731;28;20121;-41
2021/11/06 01:26:42;;;;;;;8.82;6.63;;;;;;;8.62;73.67;101865.09;5014823;28;20030;-42
2021/11/06 01:29:08;;;;;;;8.43;6.15;;;;;;;8.59;74.25;101872.09;5003460;28;20069;-41
2021/11/06 01:31:33;;;;;;;8.88;6.40;;;;;;;8.62;73.68;101875.63;5003641;28;20425;-41
2021/11/06 01:33:58;;;;;;;9.90;6.57;;;;;;;8.61;73.76;101869.50;4995461;28;20039;-40
2021/11/06 01:36:24;;;;;;;9.52;5.95;;;;;;;8.61;73.37;101874.75;4996375;28;20031;-41
2021/11/06 01:38:49;;;;;;;7.20;6.05;;;;;;;8.60;73.69;101867.72;4996357;28;20026;-41
2021/11/06 01:41:14;;;;;;;9.23;6.35;;;;;;;8.59;73.60;101872.09;4996711;28;20112;-42
2021/11/06 01:43:40;;;;;;;8.63;6.80;;;;;;;8.60;73.86;101880.84;4995172;28;20518;-42
2021/11/06 01:46:06;;;;;;;6.28;5.55;;;;;;;8.59;73.74;101882.63;5008781;28;20526;-42
2021/11/06 01:48:32;;;;;;;8.68;6.65;;;;;;;8.59;73.73;101877.38;4995137;28;20038;-41
2021/11/06 01:50:58;;;;;;;7.63;6.28;;;;;;;8.58;73.89;101872.94;5004947;28;20100;-41
2021/11/06 01:53:25;;;;;;;7.65;5.53;;;;;;;8.59;73.67;101871.19;4995986;28;20097;-41
2021/11/06 01:55:53;;;;;;;7.60;5.35;;;;;;;8.58;73.65;101875.56;4994364;28;20037;-41
2021/11/06 01:58:22;;;;;;;5.65;5.03;;;;;;;8.60;73.62;101879.13;4994578;28;20509;-41
2021/11/06 02:00:48;;;;;;;8.57;6.28;;;;;;;8.58;73.59;101878.19;4994817;28;20029;-41
2021/11/06 02:03:14;;;;;;;8.85;6.15;;;;;;;8.57;73.59;101873.81;4993700;28;20038;-41
2021/11/06 02:05:43;;;;;;;8.45;6.43;;;;;;;8.58;73.89;101870.31;4994950;28;20045;-40
2021/11/06 02:08:09;;;;;;;9.38;5.78;;;;;;;8.57;73.90;101867.69;4995673;28;20034;-41
2021/11/06 02:10:34;;;;;;;7.70;5.85;;;;;;;8.57;73.63;101863.28;4994722;28;20038;-41
2021/11/06 02:13:00;;;;;;;8.65;5.68;;;;;;;8.57;73.71;101868.53;5002117;28;20030;-41
2021/11/06 02:15:26;;;;;;;8.25;5.53;;;;;;;8.57;73.64;101873.81;5002642;28;20072;-42
2021/11/06 02:17:51;;;;;;;7.15;5.78;;;;;;;8.57;73.63;101873.81;5002133;28;20030;-41
2021/11/06 02:20:18;;;;;;;7.75;5.97;;;;;;;8.57;73.88;101872.94;5010470;28;20029;-41
2021/11/06 02:22:44;;;;;;;9.63;5.85;;;;;;;8.57;73.65;101867.69;5000550;28;20030;-41
2021/11/06 02:25:10;;;;;;;7.32;5.15;;;;;;;8.56;73.76;101860.63;5012934;28;20379;-41
2021/11/06 02:27:36;;;;;;;8.13;5.35;;;;;;;8.55;73.77;101859.75;5005166;28;20027;-41
2021/11/06 02:30:09;;;;;;;11.07;6.15;;;;;;;8.56;73.71;101866.78;4995231;28;20402;-41
2021/11/06 02:32:34;;;;;;;7.70;5.70;;;;;;;8.56;73.52;101865.88;4995525;28;20045;-42
2021/11/06 02:35:00;;;;;;;8.63;6.10;;;;;;;8.56;73.57;101872.03;4994342;28;20026;-41
2021/11/06 02:37:26;;;;;;;8.05;5.63;;;;;;;8.56;73.77;101865.88;4997442;28;20030;-41
2021/11/06 02:40:00;;;;;;;8.68;6.43;;;;;;;8.54;73.76;101871.09;5005962;28;20406;-41
2021/11/06 02:42:25;;;;;;;9.40;6.03;;;;;;;8.54;73.97;101872.88;5007427;28;20386;-41
2021/11/06 02:44:51;;;;;;;11.23;6.55;;;;;;;8.54;73.66;101865.84;5005503;28;20039;-41
2021/11/06 02:47:16;;;;;;;8.63;5.97;;;;;;;8.54;73.62;101871.09;4993901;28;20037;-41
2021/11/06 02:49:41;;;;;;;7.78;6.05;;;;;;;8.55;73.94;101865.03;5008210;28;20099;-40
2021/11/06 02:52:07;;;;;;;8.75;6.57;;;;;;;8.53;73.55;101861.47;5005157;28;20084;-42
2021/11/06 02:54:32;;;;;;;9.52;6.00;;;;;;;8.54;73.90;101868.47;5002417;28;20660;-40
2021/11/06 02:56:58;;;;;;;8.35;6.13;;;;;;;8.54;73.75;101871.09;5001858;28;20018;-41
2021/11/06 02:59:23;;;;;;;7.80;5.65;;;;;;;8.54;73.83;101872.88;5002893;28;20079;-42
2021/11/06 03:01:49;;;;;;;7.72;5.78;;;;;;;8.52;73.78;101870.19;5012974;28;20122;-41
2021/11/06 03:04:14;;;;;;;8.25;6.63;;;;;;;8.53;73.86;101876.31;5003622;28;20153;-41
2021/11/06 03:06:42;;;;;;;7.13;5.80;;;;;;;8.53;73.89;101885.13;4999800;28;20230;-43
2021/11/06 03:09:10;;;;;;;7.43;5.85;;;;;;;8.53;73.64;101877.22;5012396;28;20049;-43
2021/11/06 03:11:37;;;;;;;8.55;6.03;;;;;;;8.54;73.88;101884.25;5004227;28;20026;-41
2021/11/06 03:14:04;;;;;;;7.07;6.22;;;;;;;8.54;73.62;101889.53;5013232;28;20018;-41
2021/11/06 03:16:29;;;;;;;8.68;6.10;;;;;;;8.53;73.67;101892.09;5012613;28;20117;-40
2021/11/06 03:18:56;;;;;;;7.63;5.80;;;;;;;8.53;73.82;101887.75;5002837;28;20027;-42
2021/11/06 03:21:22;;;;;;;7.00;5.47;;;;;;;8.53;73.75;101886.81;4996629;28;20061;-42
2021/11/06 03:23:49;;;;;;;7.63;5.75;;;;;;;8.54;73.73;101893.91;4999911;28;20065;-42
2021/11/06 03:26:15;;;;;;;10.13;6.63;;;;;;;8.53;73.66;101886.81;5007252;28;20036;-43
2021/11/06 03:28:40;;;;;;;9.90;6.15;;;;;;;8.52;73.54;101891.22;5007483;28;20038;-42
2021/11/06 03:31:05;;;;;;;9.05;5.88;;;;;;;8.51;73.76;101891.19;5008322;28;20030;-42
2021/11/06 03:33:31;;;;;;;7.80;5.72;;;;;;;8.52;73.70;101891.22;4993219;28;20174;-42
2021/11/06 03:35:56;;;;;;;8.68;6.68;;;;;;;8.53;73.71;101895.63;4995396;28;20034;-42
2021/11/06 03:38:22;;;;;;;8.40;6.30;;;;;;;8.52;73.78;101906.09;4994964;28;20046;-42
2021/11/06 03:40:47;;;;;;;8.13;6.10;;;;;;;8.52;73.69;101912.25;5005448;28;20112;-47
2021/11/06 03:43:13;;;;;;;8.20;5.88;;;;;;;8.52;73.62;101907.00;5011577;28;20108;-42
2021/11/06 03:45:38;;;;;;;8.45;6.82;;;;;;;8.52;73.73;101907.00;5006293;28;20023;-42
2021/11/06 03:48:04;;;;;;;8.55;6.10;;;;;;;8.50;73.83;101906.06;5008638;28;20029;-43
2021/11/06 03:50:29;;;;;;;8.35;6.30;;;;;;;8.52;73.64;101907.00;5008079;28;20042;-42
2021/11/06 03:52:55;;;;;;;7.88;6.32;;;;;;;8.52;73.80;101901.72;4993663;28;20035;-42
2021/11/06 03:55:20;;;;;;;7.25;5.85;;;;;;;8.52;73.92;101908.72;4998914;28;20054;-42
2021/11/06 03:57:46;;;;;;;8.02;5.55;;;;;;;8.51;73.58;101904.31;5007678;28;20088;-42
2021/11/06 04:00:14;;;;;;;8.18;5.30;;;;;;;8.51;73.80;101910.50;4999966;28;20026;-42
2021/11/06 04:02:40;;;;;;;8.57;6.22;;;;;;;8.49;73.79;101909.56;4981465;28;20121;-42
2021/11/06 04:05:06;;;;;;;9.55;5.97;;;;;;;8.51;73.72;101904.31;4999289;28;20022;-43
2021/11/06 04:07:31;;;;;;;7.00;5.53;;;;;;;8.50;73.74;101910.47;4999538;28;20041;-43
2021/11/06 04:09:56;;;;;;;8.05;6.22;;;;;;;8.50;73.78;101910.47;5011695;28;20030;-42
2021/11/06 04:12:22;;;;;;;8.43;5.93;;;;;;;8.50;73.75;101915.72;5010055;28;20026;-42
2021/11/06 04:14:47;;;;;;;7.97;5.78;;;;;;;8.49;73.69;101917.44;5008573;28;20031;-42
2021/11/06 04:17:13;;;;;;;10.75;6.47;;;;;;;8.49;73.77;101920.06;5001402;28;20554;-42
2021/11/06 04:19:39;;;;;;;9.30;5.68;;;;;;;8.49;73.65;101914.81;4992851;28;20117;-42
2021/11/06 04:22:04;;;;;;;8.85;6.45;;;;;;;8.48;73.76;101910.41;5000861;28;20034;-42
2021/11/06 04:24:30;;;;;;;8.73;5.93;;;;;;;8.48;73.78;101920.94;4999557;28;20470;-42
2021/11/06 04:26:56;;;;;;;8.68;6.72;;;;;;;8.50;73.71;101913.09;5007075;28;20030;-43
2021/11/06 04:29:21;;;;;;;8.30;5.88;;;;;;;8.50;73.70;101915.72;5002002;28;20030;-42
2021/11/06 04:31:47;;;;;;;7.57;6.47;;;;;;;8.50;73.73;101913.94;4998617;28;20065;-42
2021/11/06 04:34:12;;;;;;;10.77;5.90;;;;;;;8.50;73.83;101910.47;5004309;28;20426;-42
2021/11/06 04:36:37;;;;;;;9.45;6.28;;;;;;;8.49;73.69;101912.19;5002376;28;20530;-42
2021/11/06 04:39:03;;;;;;;9.15;6.55;;;;;;;8.49;73.71;101906.94;5010937;28;20044;-42
2021/11/06 04:41:28;;;;;;;10.88;6.07;;;;;;;8.49;73.92;101914.81;4998568;28;20029;-42
2021/11/06 04:43:53;;;;;;;7.60;5.80;;;;;;;8.48;73.72;101911.28;4994174;28;20512;-43
2021/11/06 04:46:19;;;;;;;8.43;5.97;;;;;;;8.49;73.77;101906.94;4997869;28;20030;-42
2021/11/06 04:48:44;;;;;;;8.02;6.40;;;;;;;8.48;73.57;101908.66;5011451;28;20037;-42
2021/11/06 04:51:09;;;;;;;9.68;6.60;;;;;;;8.49;73.65;101909.56;5002216;28;20058;-42
2021/11/06 04:53:35;;;;;;;8.65;6.40;;;;;;;8.48;73.67;101911.28;4995051;28;20032;-42
2021/11/06 04:56:00;;;;;;;9.73;6.72;;;;;;;8.47;73.66;101914.78;4995875;28;20026;-42
2021/11/06 04:58:26;;;;;;;10.57;6.55;;;;;;;8.47;73.62;101909.53;4995892;28;20026;-43
2021/11/06 05:00:51;;;;;;;9.63;6.93;;;;;;;8.48;73.75;101905.16;4996638;28;20051;-43
2021/11/06 05:03:17;;;;;;;9.88;7.05;;;;;;;8.47;73.73;101903.38;5001867;28;20037;-42
2021/11/06 05:05:42;;;;;;;8.93;6.95;;;;;;;8.47;73.77;101900.75;5015283;28;20528;-42
2021/11/06 05:08:07;;;;;;;8.82;6.30;;;;;;;8.46;73.70;101906.84;5009823;28;20478;-43
2021/11/06 05:10:35;;;;;;;8.70;5.97;;;;;;;8.47;73.83;101908.63;5003354;28;20492;-43
2021/11/06 05:13:01;;;;;;;8.52;6.40;;;;;;;8.46;73.70;101906.84;4995742;28;20037;-43
2021/11/06 05:15:26;;;;;;;9.10;5.85;;;;;;;8.47;73.78;101913.88;4994327;28;20030;-42
2021/11/06 05:17:53;;;;;;;9.38;6.82;;;;;;;8.46;73.70;101912.13;4996970;28;20105;-42
2021/11/06 05:20:19;;;;;;;9.85;6.95;;;;;;;8.45;73.84;101910.34;5001147;28;20022;-42
2021/11/06 05:22:45;;;;;;;7.88;6.28;;;;;;;8.45;73.74;101906.00;5012426;28;20105;-42
2021/11/06 05:25:12;;;;;;;9.18;6.78;;;;;;;8.45;73.71;101915.63;4994442;28;20449;-42
2021/11/06 05:27:37;;;;;;;8.88;6.22;;;;;;;8.45;73.72;101907.72;4998344;28;20034;-42
2021/11/06 05:30:09;;;;;;;9.95;7.07;;;;;;;8.44;73.80;101906.81;5006000;28;20096;-42
2021/11/06 05:32:38;;;;;;;9.70;7.40;;;;;;;8.45;73.69;101911.25;5006261;28;20026;-42
2021/11/06 05:35:06;;;;;;;10.77;7.10;;;;;;;8.44;73.72;101916.47;4995317;28;20062;-42
2021/11/06 05:37:31;;;;;;;8.68;6.75;;;;;;;8.45;73.79;101905.09;5011983;28;20125;-43
2021/11/06 05:39:57;;;;;;;10.82;7.22;;;;;;;8.44;73.80;101905.97;5013142;28;20176;-42
2021/11/06 05:42:23;;;;;;;9.20;6.47;;;;;;;8.46;73.87;101906.84;5011246;28;20030;-43
2021/11/06 05:44:48;;;;;;;8.90;7.03;;;;;;;8.44;73.67;101898.06;5006135;28;20038;-42
2021/11/06 05:47:14;;;;;;;10.75;7.65;;;;;;;8.45;74.01;101902.47;5004166;28;20044;-43
2021/11/06 05:49:39;;;;;;;10.75;7.13;;;;;;;8.44;73.73;101909.47;5002163;28;20030;-43
2021/11/06 05:52:04;;;;;;;10.95;7.32;;;;;;;8.44;73.82;101914.72;5001089;28;20120;-42
2021/11/06 05:54:30;;;;;;;10.43;7.22;;;;;;;8.44;73.66;101909.47;5006928;28;20061;-42
2021/11/06 05:56:56;;;;;;;9.68;7.97;;;;;;;8.45;73.60;101905.09;4995063;28;20105;-42
2021/11/06 05:59:21;;;;;;;9.15;7.55;;;;;;;8.44;74.27;101903.34;5000730;28;20068;-42
2021/11/06 06:01:48;;;;;;;8.60;6.93;;;;;;;8.45;73.81;101915.63;5006301;28;20042;-43
2021/11/06 06:04:13;;;;;;;10.93;7.80;;;;;;;8.44;73.81;101911.22;4999700;28;20457;-42
2021/11/06 06:06:39;;;;;;;10.60;7.40;;;;;;;8.44;73.71;101911.22;5003596;28;20030;-42
2021/11/06 06:09:04;;;;;;;10.10;7.32;;;;;;;8.44;73.75;101919.09;4998548;28;20041;-42
2021/11/06 06:11:29;;;;;;;9.73;7.30;;;;;;;8.44;73.69;101924.38;4993180;28;20026;-42
2021/11/06 06:13:55;;;;;;;11.00;7.60;;;;;;;8.44;73.69;101929.63;5004088;28;20133;-42
2021/11/06 06:16:20;;;;;;;10.38;7.63;;;;;;;8.43;73.86;101927.81;4997831;28;20086;-42
2021/11/06 06:18:46;;;;;;;9.95;7.70;;;;;;;8.43;73.67;101927.81;4999563;28;20478;-42
2021/11/06 06:21:13;;;;;;;10.63;7.55;;;;;;;8.43;73.82;101927.81;5013728;28;20032;-42
2021/11/06 06:23:39;;;;;;;10.65;8.30;;;;;;;8.44;73.60;101924.38;5003305;28;20030;-42
2021/11/06 06:26:04;;;;;;;9.88;8.10;;;;;;;8.42;73.74;101921.72;5004049;28;20027;-42
2021/11/06 06:28:29;;;;;;;10.35;8.02;;;;;;;8.43;73.72;101923.47;4993535;28;20030;-42
2021/11/06 06:30:55;;;;;;;9.13;7.10;;;;;;;8.43;73.52;101925.19;5010962;28;20036;-42
2021/11/06 06:33:20;;;;;;;10.57;7.55;;;;;;;8.43;73.75;101933.09;5002832;28;20378;-42
2021/11/06 06:35:45;;;;;;;10.43;7.57;;;;;;;8.43;73.75;101933.09;5004861;28;20061;-42
2021/11/06 06:38:10;;;;;;;10.07;7.38;;;;;;;8.43;73.64;101933.97;5000832;28;20032;-43
2021/11/06 06:40:36;;;;;;;10.63;7.63;;;;;;;8.43;73.73;101933.09;4996585;28;20022;-42
2021/11/06 06:43:01;;;;;;;9.70;7.28;;;;;;;8.42;73.58;101932.22;5008085;28;20056;-44
2021/11/06 06:48:49;;;;;;;10.98;7.40;;;;;;;8.41;73.76;101935.69;4996914;28;20048;-42
2021/11/06 06:51:15;;;;;;;10.80;7.22;;;;;;;8.41;73.85;101943.56;5003678;28;20026;-42
2021/11/06 06:53:41;;;;;;;11.32;7.68;;;;;;;8.42;73.65;101940.09;5004323;28;20036;-43
2021/11/06 06:56:07;;;;;;;9.43;7.63;;;;;;;8.42;73.76;101942.75;5012032;28;20491;-43
2021/11/06 06:58:33;;;;;;;11.60;8.32;;;;;;;8.42;73.86;101941.84;4996261;28;20533;-42
2021/11/06 07:00:58;;;;;;;8.93;7.72;;;;;;;8.41;73.89;101945.34;4996681;28;20056;-43
2021/11/06 07:03:23;;;;;;;10.75;8.13;;;;;;;8.40;73.77;101949.69;4999294;28;20034;-42
2021/11/06 07:05:49;;;;;;;11.30;7.93;;;;;;;8.40;73.87;101938.31;5001668;28;20034;-42
2021/11/06 07:08:14;;;;;;;9.88;7.25;;;;;;;8.41;73.76;101940.94;5009240;28;20037;-43
2021/11/06 07:10:39;;;;;;;11.02;7.53;;;;;;;8.41;73.68;101945.34;4999904;28;20026;-42
2021/11/06 07:13:05;;;;;;;11.63;7.57;;;;;;;8.41;73.75;101946.19;4993226;28;20081;-42
2021/11/06 07:15:31;;;;;;;10.50;7.90;;;;;;;8.41;73.72;101942.72;5007219;28;20731;-43
2021/11/06 07:17:56;;;;;;;10.05;7.70;;;;;;;8.41;73.83;101945.34;5011951;28;20033;-42
2021/11/06 07:20:22;;;;;;;11.82;7.78;;;;;;;8.40;73.85;101943.56;5003089;28;20025;-42
2021/11/06 07:22:48;;;;;;;12.00;8.30;;;;;;;8.42;73.85;101939.22;5006839;28;20561;-42
2021/11/06 07:25:14;;;;;;;11.68;8.32;;;;;;;8.42;73.67;101947.09;5004955;28;20034;-42
2021/11/06 07:27:40;;;;;;;11.77;8.80;;;;;;;8.40;73.75;101949.69;5005567;28;20486;-42
2021/11/06 07:33:27;;;;;;;10.05;8.43;;;;;;;8.40;73.91;101946.19;4999200;28;20041;-42
2021/11/06 07:35:52;;;;;;;10.65;7.50;;;;;;;8.40;73.87;101951.47;5001469;28;20038;-42
2021/11/06 07:38:18;;;;;;;12.45;8.18;;;;;;;8.41;73.85;101950.59;5002429;28;20040;-43
2021/11/06 07:40:44;;;;;;;11.00;8.05;;;;;;;8.40;73.85;101949.69;5004406;28;20089;-43
2021/11/06 07:43:10;;;;;;;11.77;8.43;;;;;;;8.41;73.95;101947.97;4998767;28;20038;-43
2021/11/06 07:45:36;;;;;;;10.35;7.53;;;;;;;8.41;73.63;101948.81;4999868;28;20108;-43
2021/11/06 07:48:02;;;;;;;10.40;8.02;;;;;;;8.40;73.79;101954.94;5009848;28;20113;-43
2021/11/06 07:50:28;;;;;;;11.20;7.32;;;;;;;8.40;73.85;101954.94;5007400;28;20036;-43
2021/11/06 07:52:54;;;;;;;10.48;7.28;;;;;;;8.42;73.92;101965.50;5000196;28;20026;-43
2021/11/06 07:55:19;;;;;;;8.70;7.57;;;;;;;8.39;73.99;101961.06;4993333;28;20129;-43
2021/11/06 07:57:44;;;;;;;10.38;7.57;;;;;;;8.41;73.72;101969.88;4994720;28;20061;-43
2021/11/06 08:00:13;;;;;;;10.60;8.43;;;;;;;8.41;73.74;101969.88;4999417;28;20034;-43
2021/11/06 08:02:39;;;;;;;10.02;7.65;;;;;;;8.40;73.93;101965.47;5001364;28;20032;-43
2021/11/06 08:05:09;;;;;;;12.73;8.80;;;;;;;8.41;73.99;101966.38;4997103;28;20469;-43
2021/11/06 08:07:34;;;;;;;12.43;7.63;;;;;;;8.40;73.90;101969.84;5002111;28;20049;-43
2021/11/06 08:10:00;;;;;;;9.38;7.78;;;;;;;8.39;73.84;101973.31;5002373;28;20038;-43
2021/11/06 08:12:26;;;;;;;11.00;7.68;;;;;;;8.40;73.96;101968.09;5000812;28;20078;-43
2021/11/06 08:14:51;;;;;;;11.40;7.65;;;;;;;8.40;73.70;101967.22;4998064;28;20052;-43
2021/11/06 08:17:17;;;;;;;10.70;8.07;;;;;;;8.41;73.85;101967.22;5002510;28;20030;-43
2021/11/06 08:19:43;;;;;;;10.70;7.50;;;;;;;8.41;74.26;101974.25;5010347;28;20029;-43
2021/11/06 08:22:10;;;;;;;12.13;7.78;;;;;;;8.40;73.81;101964.59;5006499;28;20486;-43
2021/11/06 08:24:35;;;;;;;9.13;7.10;;;;;;;8.40;73.93;101975.97;4998804;28;20034;-43
2021/11/06 08:27:01;;;;;;;9.77;7.45;;;;;;;8.39;74.00;101973.31;5000066;28;20458;-43
2021/11/06 08:29:26;;;;;;;10.65;7.93;;;;;;;8.40;74.05;101975.13;4999487;28;20030;-42
2021/11/06 08:31:51;;;;;;;10.77;7.38;;;;;;;8.40;73.89;101975.13;5000836;28;20061;-43
2021/11/06 08:34:16;;;;;;;9.18;6.93;;;;;;;8.38;74.13;101972.44;5003335;28;20014;-43
2021/11/06 08:36:42;;;;;;;9.75;7.63;;;;;;;8.39;73.92;101968.06;5003705;28;20030;-43
2021/11/06 08:39:08;;;;;;;10.90;7.85;;;;;;;8.39;74.01;101973.31;5002138;28;20048;-43
2021/11/06 08:41:34;;;;;;;9.30;7.70;;;;;;;8.40;74.00;101964.59;4998257;28;20109;-43
2021/11/06 08:44:00;;;;;;;8.98;6.68;;;;;;;8.40;74.06;101960.22;5006958;28;20464;-43
2021/11/06 08:46:25;;;;;;;7.93;6.13;;;;;;;8.40;73.92;101961.97;4996876;28;20026;-43
2021/11/06 08:48:50;;;;;;;12.35;7.88;;;;;;;8.39;73.86;101960.16;5002361;28;20034;-43
2021/11/06 08:51:16;;;;;;;9.02;7.05;;;;;;;8.39;74.09;101947.03;4999829;28;20402;-43
2021/11/06 08:53:41;;;;;;;9.88;6.68;;;;;;;8.40;74.16;101949.69;4997483;28;20026;-43
2021/11/06 08:56:06;;;;;;;9.65;7.28;;;;;;;8.40;73.99;101941.81;5005241;28;20505;-43
2021/11/06 08:58:32;;;;;;;9.05;6.82;;;;;;;8.41;74.09;101942.72;4999832;28;20029;-43
2021/11/06 09:01:00;;;;;;;9.13;7.80;;;;;;;8.40;74.12;101933.91;5006423;28;20436;-43
2021/11/06 09:03:26;;;;;;;9.65;7.38;;;;;;;8.40;73.96;101936.53;5005863;28;20073;-43
2021/11/06 09:05:53;;;;;;;8.15;6.45;;;;;;;8.42;74.02;101937.47;5007521;28;20065;-43
2021/11/06 09:08:21;;;;;;;10.02;7.30;;;;;;;8.44;73.98;101940.13;5004123;28;20031;-43
2021/11/06 09:10:48;;;;;;;8.07;6.78;;;;;;;8.43;73.82;101933.09;5005554;28;20429;-43
2021/11/06 09:13:14;;;;;;;10.90;7.32;;;;;;;8.44;73.94;101932.25;5003435;28;20073;-43
2021/11/06 09:15:40;;;;;;;7.75;6.50;;;;;;;8.45;73.97;101932.28;4997544;28;20057;-43
2021/11/06 09:18:06;;;;;;;8.18;6.45;;;;;;;8.45;73.94;101934.91;4999455;28;20626;-42
2021/11/06 09:20:33;;;;;;;9.55;7.53;;;;;;;8.47;73.92;101930.56;5013750;28;20042;-43
2021/11/06 09:22:58;;;;;;;9.40;7.13;;;;;;;8.45;73.89;101927.03;5004298;28;20026;-43
2021/11/06 09:25:23;;;;;;;10.80;7.85;;;;;;;8.49;73.74;101941.09;5001543;28;20061;-44
2021/11/06 09:27:50;;;;;;;8.57;6.60;;;;;;;8.48;73.90;101937.59;5000954;28;20022;-44
2021/11/06 09:30:15;;;;;;;10.48;7.13;;;;;;;8.49;73.89;101938.47;5008623;28;20081;-44
2021/11/06 09:32:41;;;;;;;8.70;6.28;;;;;;;8.49;73.95;101935.84;5002407;28;20030;-43
2021/11/06 09:35:07;;;;;;;9.85;6.97;;;;;;;8.50;74.05;101944.63;5009872;28;20096;-42
2021/11/06 09:37:35;;;;;;;8.27;6.80;;;;;;;8.51;74.00;101946.41;5004370;28;20048;-44
2021/11/06 09:40:01;;;;;;;9.43;7.10;;;;;;;8.52;74.00;101943.81;5009648;28;20490;-44
2021/11/06 09:42:27;;;;;;;7.38;6.22;;;;;;;8.51;73.77;101942.03;4996778;28;20030;-43
2021/11/06 09:44:52;;;;;;;9.35;6.47;;;;;;;8.53;73.85;101942.97;4998297;28;20114;-44
2021/11/06 09:47:19;;;;;;;9.23;6.90;;;;;;;8.53;73.86;101953.50;5000994;28;20044;-44
2021/11/06 09:49:45;;;;;;;8.45;6.57;;;;;;;8.53;73.85;101961.38;5006374;28;20616;-44
2021/11/06 09:52:14;;;;;;;7.35;5.75;;;;;;;8.53;73.82;101958.75;4995010;28;20423;-43
2021/11/06 09:54:41;;;;;;;7.75;6.47;;;;;;;8.54;73.74;101950.00;4995737;28;20026;-44
2021/11/06 09:57:07;;;;;;;7.00;6.30;;;;;;;8.55;73.84;101959.69;4996153;28;20049;-42
2021/11/06 09:59:33;;;;;;;7.93;7.07;;;;;;;8.58;73.87;101954.47;5012310;28;20030;-43
2021/11/06 10:02:00;;;;;;;9.18;6.70;;;;;;;8.59;73.89;101956.25;5010309;28;20037;-44
2021/11/06 10:04:26;;;;;;;9.13;6.75;;;;;;;8.60;73.86;101952.75;5004814;28;20505;-44
2021/11/06 10:06:52;;;;;;;9.00;6.75;;;;;;;8.60;73.80;101952.75;5010924;28;20477;-44
2021/11/06 10:09:19;;;;;;;7.07;6.13;;;;;;;8.60;73.74;101952.75;5002987;28;20108;-43
2021/11/06 10:11:47;;;;;;;7.75;6.53;;;;;;;8.60;73.83;101958.03;4998001;28;20030;-43
2021/11/06 10:14:21;;;;;;;7.47;6.15;;;;;;;8.62;73.85;101959.78;4997024;28;20053;-43
2021/11/06 10:16:58;;;;;;;9.88;6.90;;;;;;;8.62;73.87;101960.69;4995051;28;20562;-43
2021/11/06 10:19:45;;;;;;;7.22;6.10;;;;;;;8.62;73.84;101954.53;4998594;28;20060;-43
2021/11/06 10:22:17;;;;;;;7.40;6.47;;;;;;;8.62;73.86;101949.28;5004866;28;20033;-42
2021/11/06 10:24:43;;;;;;;6.97;5.90;;;;;;;8.63;73.72;101951.06;4996462;28;20035;-43
2021/11/06 10:27:26;;;;;;;7.57;6.53;;;;;;;8.62;73.84;101933.47;5008945;28;20193;-43
2021/11/06 10:30:14;;;;;;;7.05;5.95;;;;;;;8.64;73.82;101932.66;5006584;28;20383;-43
2021/11/06 10:33:14;;;;;;;7.35;6.40;;;;;;;8.64;73.90;101927.41;4994631;28;20022;-43
2021/11/06 10:35:51;;;;;;;7.72;6.13;;;;;;;8.64;73.88;101918.63;5001028;28;20177;-43
2021/11/06 10:38:28;;;;;;;7.57;5.43;;;;;;;8.65;73.82;101917.78;4998356;28;20497;-42
2021/11/06 10:41:07;;;;;;;8.45;6.80;;;;;;;8.66;73.90;101914.28;5003966;28;20454;-43
2021/11/06 10:43:35;;;;;;;7.85;7.05;;;;;;;8.65;73.84;101908.16;4999328;28;20034;-43
2021/11/06 10:46:02;;;;;;;9.00;6.95;;;;;;;8.67;73.96;101911.69;4994106;28;20058;-43
2021/11/06 10:48:31;;;;;;;8.48;6.75;;;;;;;8.68;73.91;101907.31;5007191;28;20025;-43
2021/11/06 10:51:13;;;;;;;9.35;6.93;;;;;;;8.69;73.88;101902.09;4999391;28;20026;-43
2021/11/06 10:53:45;;;;;;;11.05;7.13;;;;;;;8.70;74.10;101895.06;5004956;28;20018;-44
2021/11/06 10:56:13;;;;;;;;;;;;;;;8.70;73.84;101890.69;5000897;28;20145;-44
2021/11/06 10:58:38;;;;;;;9.25;6.80;;;;;;;8.68;74.03;101888.91;5004578;28;19916;-44
2021/11/06 11:01:07;;;;;;;8.13;6.38;;;;;;;8.70;74.12;101879.28;4995082;28;20026;-43
2021/11/06 11:03:34;;;;;;;9.63;7.13;;;;;;;8.72;73.96;101885.47;5009715;28;20034;-43
2021/11/06 11:06:06;;;;;;;8.02;7.13;;;;;;;8.72;74.13;101877.56;5002483;28;20053;-43
2021/11/06 11:08:41;;;;;;;10.80;7.25;;;;;;;8.73;74.08;101880.25;4993081;28;20026;-43
2021/11/06 11:11:08;;;;;;;9.05;7.07;;;;;;;8.75;73.89;101882.00;4994650;28;20037;-43
2021/11/06 11:13:34;;;;;;;9.70;7.50;;;;;;;8.75;73.88;101885.53;5000148;28;20022;-43
2021/11/06 11:16:16;;;;;;;9.25;6.55;;;;;;;8.76;73.91;101879.41;4996396;28;20029;-44
2021/11/06 11:18:46;;;;;;;9.70;6.90;;;;;;;8.78;73.91;101888.22;4999241;28;20449;-43
2021/11/06 11:21:26;;;;;;;10.43;7.60;;;;;;;8.79;73.88;101889.97;5007211;28;20022;-43
2021/11/06 11:23:56;;;;;;;10.27;7.33;;;;;;;8.79;73.94;101876.84;5004198;28;20077;-42
2021/11/06 11:26:27;;;;;;;7.82;6.85;;;;;;;8.81;73.95;101882.13;4999104;28;20036;-44
2021/11/06 11:28:53;;;;;;;8.40;6.72;;;;;;;8.80;73.78;101883.84;4998992;28;20030;-43
2021/11/06 11:31:20;;;;;;;7.38;6.53;;;;;;;8.81;74.02;101876.88;5001961;28;20037;-43
2021/11/06 11:33:46;;;;;;;9.18;7.38;;;;;;;8.82;73.91;101882.16;4996079;28;20109;-44
2021/11/06 11:36:14;;;;;;;9.23;7.32;;;;;;;8.83;73.92;101868.13;5012287;28;20176;-44